createdAt,value
2016-12-24T00:00:55.539Z,1044.46
2016-12-24T00:01:55.524Z,1044.44
2016-12-24T00:02:55.509Z,1044.42
2016-12-24T00:03:55.495Z,1044.37
2016-12-24T00:04:55.480Z,1044.32
2016-12-24T00:05:55.466Z,1044.27
2016-12-24T00:06:55.450Z,1044.32
2016-12-24T00:07:55.435Z,1044.39
2016-12-24T00:08:55.420Z,1044.36
2016-12-24T00:09:55.406Z,1044.33
2016-12-24T00:10:55.390Z,1044.27
2016-12-24T00:11:55.376Z,1044.25
2016-12-24T00:12:55.361Z,1044.26
2016-12-24T00:13:55.347Z,1044.3
2016-12-24T00:14:55.332Z,1044.3
2016-12-24T00:15:55.317Z,1044.29
2016-12-24T00:16:55.302Z,1044.34
2016-12-24T00:17:55.287Z,1044.25
2016-12-24T00:18:55.272Z,1044.23
2016-12-24T00:19:55.257Z,1044.3
2016-12-24T00:20:55.243Z,1044.32
2016-12-24T00:21:55.228Z,1044.35
2016-12-24T00:22:55.213Z,1044.3
2016-12-24T00:23:55.198Z,1044.29
2016-12-24T00:24:55.184Z,1044.23
2016-12-24T00:25:55.168Z,1044.26
2016-12-24T00:26:55.155Z,1044.27
2016-12-24T00:27:55.139Z,1044.21
2016-12-24T00:28:55.125Z,1044.18
2016-12-24T00:29:55.109Z,1044.17
2016-12-24T00:30:55.095Z,1044.2
2016-12-24T00:31:55.080Z,1044.17
2016-12-24T00:32:55.064Z,1044.16
2016-12-24T00:33:55.050Z,1044.15
2016-12-24T00:34:55.035Z,1044.11
2016-12-24T00:35:55.021Z,1044.12
2016-12-24T00:36:55.005Z,1044.1
2016-12-24T00:37:54.991Z,1044.06
2016-12-24T00:38:54.976Z,1043.99
2016-12-24T00:39:54.961Z,1044.01
2016-12-24T00:40:54.946Z,1044.04
2016-12-24T00:41:54.932Z,1044
2016-12-24T00:42:54.917Z,1044.07
2016-12-24T00:43:54.901Z,1043.96
2016-12-24T00:44:54.887Z,1043.99
2016-12-24T00:45:54.872Z,1043.91
2016-12-24T00:46:54.858Z,1043.85
2016-12-24T00:47:54.842Z,1043.79
2016-12-24T00:48:54.827Z,1043.83
2016-12-24T00:49:54.813Z,1043.87
2016-12-24T00:50:54.798Z,1043.86
2016-12-24T00:51:54.783Z,1043.82
2016-12-24T00:52:54.768Z,1043.83
2016-12-24T00:53:54.754Z,1043.82
2016-12-24T00:54:54.739Z,1043.77
2016-12-24T00:55:54.723Z,1043.75
2016-12-24T00:56:54.709Z,1043.7
2016-12-24T00:57:54.694Z,1043.64
2016-12-24T00:58:54.679Z,1043.61
2016-12-24T00:59:54.664Z,1043.54
2016-12-24T01:00:54.650Z,1043.5
2016-12-24T01:01:54.636Z,1043.49
2016-12-24T01:02:54.621Z,1043.45
2016-12-24T01:03:54.606Z,1043.37
2016-12-24T01:04:54.591Z,1043.36
2016-12-24T01:05:54.576Z,1043.3
2016-12-24T01:06:54.561Z,1043.36
2016-12-24T01:07:54.547Z,1043.28
2016-12-24T01:08:54.532Z,1043.3
2016-12-24T01:09:54.518Z,1043.26
2016-12-24T01:10:54.502Z,1043.23
2016-12-24T01:11:54.488Z,1043.17
2016-12-24T01:12:54.474Z,1043.24
2016-12-24T01:13:54.458Z,1043.2
2016-12-24T01:14:54.443Z,1043.19
2016-12-24T01:15:54.429Z,1043.12
2016-12-24T01:16:54.413Z,1043.05
2016-12-24T01:17:54.399Z,1042.93
2016-12-24T01:18:54.385Z,1042.92
2016-12-24T01:19:54.370Z,1042.92
2016-12-24T01:20:54.354Z,1042.91
2016-12-24T01:21:54.340Z,1042.89
2016-12-24T01:22:54.326Z,1042.77
2016-12-24T01:23:54.310Z,1042.66
2016-12-24T01:24:54.297Z,1042.6
2016-12-24T01:25:54.282Z,1042.63
2016-12-24T01:26:54.267Z,1042.64
2016-12-24T01:27:54.252Z,1042.59
2016-12-24T01:28:54.238Z,1042.55
2016-12-24T01:29:54.223Z,1042.55
2016-12-24T01:30:54.209Z,1042.57
2016-12-24T01:31:54.194Z,1042.55
2016-12-24T01:32:54.179Z,1042.49
2016-12-24T01:33:54.168Z,1042.41
2016-12-24T01:34:54.151Z,1042.45
2016-12-24T01:35:54.137Z,1042.49
2016-12-24T01:36:54.121Z,1042.52
2016-12-24T01:37:54.107Z,1042.51
2016-12-24T01:38:54.092Z,1042.38
2016-12-24T01:39:54.077Z,1042.44
2016-12-24T01:40:54.064Z,1042.49
2016-12-24T01:41:54.049Z,1042.45
2016-12-24T01:42:54.034Z,1042.44
2016-12-24T01:43:54.019Z,1042.44
2016-12-24T01:44:54.005Z,1042.46
2016-12-24T01:45:53.990Z,1042.44
2016-12-24T01:46:53.998Z,1042.36
2016-12-24T01:47:53.962Z,1042.32
2016-12-24T01:48:53.948Z,1042.13
2016-12-24T01:49:53.932Z,1042.04
2016-12-24T01:50:53.918Z,1041.96
2016-12-24T01:51:53.904Z,1042.02
2016-12-24T01:52:53.890Z,1042.08
2016-12-24T01:53:53.875Z,1042.08
2016-12-24T01:54:53.860Z,1042.01
2016-12-24T01:55:53.846Z,1042.01
2016-12-24T01:56:53.831Z,1041.95
2016-12-24T01:57:53.817Z,1041.91
2016-12-24T01:58:53.805Z,1041.89
2016-12-24T01:59:53.788Z,1041.96
2016-12-24T02:00:53.773Z,1042
2016-12-24T02:01:53.759Z,1042.07
2016-12-24T02:02:53.745Z,1042.05
2016-12-24T02:03:53.732Z,1042.05
2016-12-24T02:04:53.716Z,1042.06
2016-12-24T02:05:53.701Z,1042.03
2016-12-24T02:06:53.687Z,1042.03
2016-12-24T02:07:53.673Z,1041.95
2016-12-24T02:08:53.659Z,1041.9
2016-12-24T02:09:53.644Z,1042
2016-12-24T02:10:53.629Z,1041.95
2016-12-24T02:11:53.616Z,1041.98
2016-12-24T02:12:53.601Z,1041.84
2016-12-24T02:13:53.586Z,1041.82
2016-12-24T02:14:53.572Z,1041.83
2016-12-24T02:15:53.557Z,1041.83
2016-12-24T02:16:53.543Z,1041.78
2016-12-24T02:17:53.531Z,1041.8
2016-12-24T02:18:53.514Z,1041.89
2016-12-24T02:19:53.500Z,1041.9
2016-12-24T02:20:53.486Z,1041.86
2016-12-24T02:21:53.472Z,1041.74
2016-12-24T02:22:53.457Z,1041.65
2016-12-24T02:23:53.443Z,1041.54
2016-12-24T02:24:53.429Z,1041.48
2016-12-24T02:25:53.415Z,1041.48
2016-12-24T02:26:53.400Z,1041.53
2016-12-24T02:27:53.404Z,1041.68
2016-12-24T02:28:53.372Z,1041.68
2016-12-24T02:29:53.356Z,1041.63
2016-12-24T02:30:53.343Z,1041.66
2016-12-24T02:31:53.329Z,1041.65
2016-12-24T02:32:53.315Z,1041.53
2016-12-24T02:33:53.300Z,1041.56
2016-12-24T02:34:53.285Z,1041.54
2016-12-24T02:35:53.271Z,1041.51
2016-12-24T02:36:53.257Z,1041.55
2016-12-24T02:37:53.244Z,1041.54
2016-12-24T02:38:53.229Z,1041.6
2016-12-24T02:39:53.215Z,1041.57
2016-12-24T02:40:53.200Z,1041.49
2016-12-24T02:41:53.186Z,1041.41
2016-12-24T02:42:53.172Z,1041.39
2016-12-24T02:43:53.158Z,1041.4
2016-12-24T02:44:53.143Z,1041.39
2016-12-24T02:45:53.129Z,1041.32
2016-12-24T02:46:53.115Z,1041.23
2016-12-24T02:47:53.100Z,1041.15
2016-12-24T02:48:53.086Z,1041.09
2016-12-24T02:49:53.073Z,1041.04
2016-12-24T02:50:53.058Z,1040.98
2016-12-24T02:51:53.044Z,1040.88
2016-12-24T02:52:53.032Z,1040.86
2016-12-24T02:53:53.018Z,1040.72
2016-12-24T02:54:53.002Z,1040.76
2016-12-24T02:55:52.987Z,1040.62
2016-12-24T02:56:52.974Z,1040.69
2016-12-24T02:57:52.960Z,1040.81
2016-12-24T02:58:52.946Z,1040.72
2016-12-24T02:59:52.932Z,1040.62
2016-12-24T03:00:52.918Z,1040.59
2016-12-24T03:01:52.904Z,1040.54
2016-12-24T03:02:52.890Z,1040.42
2016-12-24T03:03:52.875Z,1040.33
2016-12-24T03:04:52.862Z,1040.33
2016-12-24T03:05:52.848Z,1040.34
2016-12-24T03:06:52.834Z,1040.29
2016-12-24T03:07:52.820Z,1040.18
2016-12-24T03:08:52.807Z,1040.12
2016-12-24T03:09:52.792Z,1040.15
2016-12-24T03:10:52.778Z,1040.12
2016-12-24T03:11:52.765Z,1040.1
2016-12-24T03:12:52.752Z,1040.07
2016-12-24T03:13:52.737Z,1039.99
2016-12-24T03:14:52.724Z,1039.95
2016-12-24T03:15:52.710Z,1039.96
2016-12-24T03:16:52.697Z,1039.89
2016-12-24T03:17:52.682Z,1039.9
2016-12-24T03:18:52.669Z,1040
2016-12-24T03:19:52.655Z,1039.87
2016-12-24T03:20:52.641Z,1039.81
2016-12-24T03:21:52.627Z,1039.79
2016-12-24T03:22:52.615Z,1039.79
2016-12-24T03:23:52.601Z,1039.75
2016-12-24T03:24:52.588Z,1039.77
2016-12-24T03:25:52.574Z,1039.71
2016-12-24T03:26:52.560Z,1039.65
2016-12-24T03:27:52.549Z,1039.7
2016-12-24T03:28:52.533Z,1039.7
2016-12-24T03:29:52.520Z,1039.78
2016-12-24T03:30:52.509Z,1039.77
2016-12-24T03:31:52.493Z,1039.8
2016-12-24T03:32:52.480Z,1039.68
2016-12-24T03:33:52.467Z,1039.66
2016-12-24T03:34:52.453Z,1039.66
2016-12-24T03:35:52.439Z,1039.63
2016-12-24T03:36:52.426Z,1039.52
2016-12-24T03:37:52.413Z,1039.42
2016-12-24T03:38:52.400Z,1039.39
2016-12-24T03:39:52.388Z,1039.44
2016-12-24T03:40:52.373Z,1039.4
2016-12-24T03:41:52.360Z,1039.4
2016-12-24T03:42:52.346Z,1039.32
2016-12-24T03:43:52.333Z,1039.25
2016-12-24T03:44:52.323Z,1039.28
2016-12-24T03:45:52.316Z,1039.27
2016-12-24T03:46:52.294Z,1039.3
2016-12-24T03:47:52.281Z,1039.32
2016-12-24T03:48:52.268Z,1039.25
2016-12-24T03:49:52.255Z,1039.2
2016-12-24T03:50:52.241Z,1039.1
2016-12-24T03:51:52.228Z,1039.05
2016-12-24T03:52:52.217Z,1039.02
2016-12-24T03:53:52.202Z,1039.02
2016-12-24T03:54:52.190Z,1038.95
2016-12-24T03:55:52.177Z,1038.85
2016-12-24T03:56:52.165Z,1038.78
2016-12-24T03:57:52.151Z,1038.78
2016-12-24T03:58:52.138Z,1038.8
2016-12-24T03:59:52.128Z,1038.74
2016-12-24T04:00:52.113Z,1038.76
2016-12-24T04:01:52.100Z,1038.77
2016-12-24T04:02:52.088Z,1038.74
2016-12-24T04:03:52.075Z,1038.7
2016-12-24T04:04:52.062Z,1038.65
2016-12-24T04:05:52.049Z,1038.65
2016-12-24T04:06:52.037Z,1038.58
2016-12-24T04:07:52.024Z,1038.54
2016-12-24T04:08:52.011Z,1038.56
2016-12-24T04:09:51.999Z,1038.5
2016-12-24T04:10:51.987Z,1038.46
2016-12-24T04:11:51.976Z,1038.46
2016-12-24T04:12:51.962Z,1038.46
2016-12-24T04:13:51.950Z,1038.4
2016-12-24T04:14:51.937Z,1038.34
2016-12-24T04:15:51.924Z,1038.33
2016-12-24T04:16:51.912Z,1038.31
2016-12-24T04:17:51.900Z,1038.35
2016-12-24T04:18:51.888Z,1038.38
2016-12-24T04:19:51.875Z,1038.4
2016-12-24T04:20:51.864Z,1038.34
2016-12-24T04:21:51.850Z,1038.28
2016-12-24T04:22:51.837Z,1038.3
2016-12-24T04:23:51.824Z,1038.35
2016-12-24T04:24:51.812Z,1038.33
2016-12-24T04:25:51.800Z,1038.31
2016-12-24T04:26:51.787Z,1038.35
2016-12-24T04:27:51.781Z,1038.37
2016-12-24T04:28:51.763Z,1038.41
2016-12-24T04:29:51.751Z,1038.45
2016-12-24T04:30:51.738Z,1038.48
2016-12-24T04:31:51.725Z,1038.44
2016-12-24T04:32:51.713Z,1038.43
2016-12-24T04:33:51.700Z,1038.44
2016-12-24T04:34:51.688Z,1038.37
2016-12-24T04:35:51.676Z,1038.41
2016-12-24T04:36:51.664Z,1038.35
2016-12-24T04:37:51.651Z,1038.37
2016-12-24T04:38:51.639Z,1038.28
2016-12-24T04:39:51.626Z,1038.32
2016-12-24T04:40:51.614Z,1038.31
2016-12-24T04:41:51.601Z,1038.29
2016-12-24T04:42:51.589Z,1038.19
2016-12-24T04:43:51.576Z,1038.25
2016-12-24T04:44:51.563Z,1038.3
2016-12-24T04:45:51.551Z,1038.24
2016-12-24T04:46:51.539Z,1038.19
2016-12-24T04:47:51.527Z,1038.13
2016-12-24T04:48:51.514Z,1038.13
2016-12-24T04:49:51.502Z,1038.05
2016-12-24T04:50:51.489Z,1038.13
2016-12-24T04:51:51.477Z,1037.99
2016-12-24T04:52:51.464Z,1038.09
2016-12-24T04:53:51.452Z,1038.04
2016-12-24T04:54:51.440Z,1038.13
2016-12-24T04:55:51.427Z,1038.05
2016-12-24T04:56:51.415Z,1038.06
2016-12-24T04:57:51.403Z,1038.01
2016-12-24T04:58:51.392Z,1037.95
2016-12-24T04:59:51.377Z,1037.97
2016-12-24T05:00:51.366Z,1037.91
2016-12-24T05:01:51.353Z,1037.92
2016-12-24T05:02:51.341Z,1037.9
2016-12-24T05:03:51.328Z,1037.85
2016-12-24T05:04:51.317Z,1037.84
2016-12-24T05:05:51.304Z,1037.88
2016-12-24T05:06:51.291Z,1037.81
2016-12-24T05:07:51.279Z,1037.78
2016-12-24T05:08:51.268Z,1037.8
2016-12-24T05:09:51.255Z,1037.8
2016-12-24T05:10:51.242Z,1037.83
2016-12-24T05:11:51.230Z,1037.78
2016-12-24T05:12:51.218Z,1037.76
2016-12-24T05:13:51.206Z,1037.7
2016-12-24T05:14:51.193Z,1037.67
2016-12-24T05:15:51.181Z,1037.74
2016-12-24T05:16:51.169Z,1037.69
2016-12-24T05:17:51.156Z,1037.66
2016-12-24T05:18:51.144Z,1037.66
2016-12-24T05:19:51.133Z,1037.65
2016-12-24T05:20:51.121Z,1037.69
2016-12-24T05:21:51.108Z,1037.74
2016-12-24T05:22:51.096Z,1037.74
2016-12-24T05:23:51.084Z,1037.68
2016-12-24T05:24:51.072Z,1037.6
2016-12-24T05:25:51.059Z,1037.55
2016-12-24T05:26:51.047Z,1037.54
2016-12-24T05:27:51.035Z,1037.63
2016-12-24T05:28:51.022Z,1037.62
2016-12-24T05:29:51.011Z,1037.68
2016-12-24T05:30:50.999Z,1037.63
2016-12-24T05:31:50.987Z,1037.59
2016-12-24T05:32:50.974Z,1037.54
2016-12-24T05:33:50.962Z,1037.52
2016-12-24T05:34:50.950Z,1037.5
2016-12-24T05:35:50.939Z,1037.47
2016-12-24T05:36:50.926Z,1037.47
2016-12-24T05:37:50.914Z,1037.43
2016-12-24T05:38:50.902Z,1037.44
2016-12-24T05:39:50.890Z,1037.46
2016-12-24T05:40:50.878Z,1037.49
2016-12-24T05:41:50.866Z,1037.49
2016-12-24T05:42:50.856Z,1037.51
2016-12-24T05:43:50.844Z,1037.43
2016-12-24T05:44:50.830Z,1037.4
2016-12-24T05:45:50.819Z,1037.4
2016-12-24T05:46:50.807Z,1037.49
2016-12-24T05:47:50.795Z,1037.47
2016-12-24T05:48:50.783Z,1037.39
2016-12-24T05:49:50.772Z,1037.33
2016-12-24T05:50:50.759Z,1037.39
2016-12-24T05:51:50.748Z,1037.37
2016-12-24T05:52:50.736Z,1037.39
2016-12-24T05:53:50.724Z,1037.37
2016-12-24T05:54:50.713Z,1037.42
2016-12-24T05:55:50.704Z,1037.51
2016-12-24T05:56:50.688Z,1037.51
2016-12-24T05:57:50.676Z,1037.56
2016-12-24T05:58:50.664Z,1037.48
2016-12-24T05:59:50.652Z,1037.5
2016-12-24T06:00:50.641Z,1037.57
2016-12-24T06:01:50.628Z,1037.61
2016-12-24T06:02:50.616Z,1037.59
2016-12-24T06:03:50.605Z,1037.64
2016-12-24T06:04:50.595Z,1037.71
2016-12-24T06:05:50.581Z,1037.75
2016-12-24T06:06:50.569Z,1037.73
2016-12-24T06:07:50.557Z,1037.79
2016-12-24T06:08:50.545Z,1037.74
2016-12-24T06:09:50.533Z,1037.77
2016-12-24T06:10:50.521Z,1037.79
2016-12-24T06:11:50.510Z,1037.82
2016-12-24T06:12:50.497Z,1037.76
2016-12-24T06:13:50.485Z,1037.82
2016-12-24T06:14:50.474Z,1037.81
2016-12-24T06:15:50.462Z,1037.79
2016-12-24T06:16:50.450Z,1037.82
2016-12-24T06:17:50.438Z,1037.85
2016-12-24T06:18:50.426Z,1037.85
2016-12-24T06:19:50.414Z,1037.89
2016-12-24T06:20:50.402Z,1037.84
2016-12-24T06:21:50.390Z,1037.84
2016-12-24T06:22:50.378Z,1037.77
2016-12-24T06:23:50.365Z,1037.86
2016-12-24T06:24:50.354Z,1037.9
2016-12-24T06:25:50.342Z,1037.93
2016-12-24T06:26:50.330Z,1037.93
2016-12-24T06:27:50.319Z,1037.94
2016-12-24T06:28:50.306Z,1038
2016-12-24T06:29:50.294Z,1038.01
2016-12-24T06:30:50.281Z,1037.99
2016-12-24T06:31:50.274Z,1037.94
2016-12-24T06:32:50.258Z,1037.85
2016-12-24T06:33:50.246Z,1037.88
2016-12-24T06:34:50.234Z,1037.84
2016-12-24T06:35:50.221Z,1037.86
2016-12-24T06:36:50.210Z,1037.83
2016-12-24T06:37:50.198Z,1037.86
2016-12-24T06:38:50.185Z,1037.81
2016-12-24T06:39:50.173Z,1037.79
2016-12-24T06:40:50.162Z,1037.79
2016-12-24T06:41:50.149Z,1037.79
2016-12-24T06:42:50.137Z,1037.81
2016-12-24T06:43:50.125Z,1037.81
2016-12-24T06:44:50.113Z,1037.79
2016-12-24T06:45:50.100Z,1037.8
2016-12-24T06:46:50.088Z,1037.78
2016-12-24T06:47:50.076Z,1037.81
2016-12-24T06:48:50.065Z,1037.82
2016-12-24T06:49:50.051Z,1037.78
2016-12-24T06:50:50.040Z,1037.84
2016-12-24T06:51:50.028Z,1037.77
2016-12-24T06:52:50.015Z,1037.72
2016-12-24T06:53:50.004Z,1037.71
2016-12-24T06:54:49.992Z,1037.68
2016-12-24T06:55:49.980Z,1037.63
2016-12-24T06:56:49.967Z,1037.63
2016-12-24T06:57:49.955Z,1037.6
2016-12-24T06:58:49.943Z,1037.59
2016-12-24T06:59:49.931Z,1037.57
2016-12-24T07:00:49.919Z,1037.53
2016-12-24T07:01:49.907Z,1037.53
2016-12-24T07:02:49.895Z,1037.6
2016-12-24T07:03:49.882Z,1037.57
2016-12-24T07:04:49.870Z,1037.59
2016-12-24T07:05:49.861Z,1037.59
2016-12-24T07:06:49.847Z,1037.6
2016-12-24T07:07:49.834Z,1037.55
2016-12-24T07:08:49.822Z,1037.57
2016-12-24T07:09:49.811Z,1037.65
2016-12-24T07:10:49.799Z,1037.65
2016-12-24T07:11:49.786Z,1037.58
2016-12-24T07:12:49.775Z,1037.56
2016-12-24T07:13:49.763Z,1037.52
2016-12-24T07:14:49.750Z,1037.5
2016-12-24T07:15:49.738Z,1037.54
2016-12-24T07:16:49.727Z,1037.56
2016-12-24T07:17:49.715Z,1037.53
2016-12-24T07:18:49.702Z,1037.5
2016-12-24T07:19:49.691Z,1037.38
2016-12-24T07:20:49.679Z,1037.5
2016-12-24T07:21:49.667Z,1037.6
2016-12-24T07:22:49.655Z,1037.67
2016-12-24T07:23:49.644Z,1037.68
2016-12-24T07:24:49.633Z,1037.71
2016-12-24T07:25:49.619Z,1037.64
2016-12-24T07:26:49.607Z,1037.63
2016-12-24T07:27:49.596Z,1037.58
2016-12-24T07:28:49.584Z,1037.59
2016-12-24T07:29:49.571Z,1037.6
2016-12-24T07:30:49.559Z,1037.59
2016-12-24T07:31:49.548Z,1037.52
2016-12-24T07:32:49.535Z,1037.53
2016-12-24T07:33:49.524Z,1037.53
2016-12-24T07:34:49.512Z,1037.51
2016-12-24T07:35:49.502Z,1037.52
2016-12-24T07:36:49.488Z,1037.55
2016-12-24T07:37:49.476Z,1037.6
2016-12-24T07:38:49.465Z,1037.59
2016-12-24T07:39:49.453Z,1037.64
2016-12-24T07:40:49.441Z,1037.68
2016-12-24T07:41:49.429Z,1037.65
2016-12-24T07:42:49.417Z,1037.66
2016-12-24T07:43:49.405Z,1037.64
2016-12-24T07:44:49.393Z,1037.63
2016-12-24T07:45:49.382Z,1037.56
2016-12-24T07:46:49.370Z,1037.5
2016-12-24T07:47:49.358Z,1037.48
2016-12-24T07:48:49.346Z,1037.47
2016-12-24T07:49:49.334Z,1037.45
2016-12-24T07:50:49.323Z,1037.41
2016-12-24T07:51:49.310Z,1037.47
2016-12-24T07:52:49.298Z,1037.46
2016-12-24T07:53:49.287Z,1037.44
2016-12-24T07:54:49.275Z,1037.47
2016-12-24T07:55:49.263Z,1037.5
2016-12-24T07:56:49.251Z,1037.54
2016-12-24T07:57:49.241Z,1037.59
2016-12-24T07:58:49.228Z,1037.6
2016-12-24T07:59:49.216Z,1037.61
2016-12-24T08:00:49.204Z,1037.7
2016-12-24T08:01:49.193Z,1037.69
2016-12-24T08:02:49.181Z,1037.65
2016-12-24T08:03:49.169Z,1037.62
2016-12-24T08:04:49.157Z,1037.66
2016-12-24T08:05:49.145Z,1037.65
2016-12-24T08:06:49.134Z,1037.67
2016-12-24T08:07:49.122Z,1037.67
2016-12-24T08:08:49.111Z,1037.67
2016-12-24T08:09:49.101Z,1037.64
2016-12-24T08:10:49.086Z,1037.64
2016-12-24T08:11:49.075Z,1037.59
2016-12-24T08:12:49.065Z,1037.64
2016-12-24T08:13:49.051Z,1037.58
2016-12-24T08:14:49.040Z,1037.64
2016-12-24T08:15:49.028Z,1037.66
2016-12-24T08:16:49.018Z,1037.69
2016-12-24T08:17:49.006Z,1037.67
2016-12-24T08:18:48.993Z,1037.64
2016-12-24T08:19:48.982Z,1037.62
2016-12-24T08:20:48.969Z,1037.58
2016-12-24T08:21:48.958Z,1037.68
2016-12-24T08:22:48.947Z,1037.67
2016-12-24T08:23:48.936Z,1037.69
2016-12-24T08:24:48.923Z,1037.69
2016-12-24T08:25:48.915Z,1037.65
2016-12-24T08:26:48.904Z,1037.58
2016-12-24T08:27:48.888Z,1037.56
2016-12-24T08:28:48.877Z,1037.48
2016-12-24T08:29:48.866Z,1037.36
2016-12-24T08:30:48.854Z,1037.35
2016-12-24T08:31:48.842Z,1037.3
2016-12-24T08:32:48.832Z,1037.26
2016-12-24T08:33:48.820Z,1037.26
2016-12-24T08:34:48.808Z,1037.24
2016-12-24T08:35:48.795Z,1037.18
2016-12-24T08:36:48.784Z,1037.13
2016-12-24T08:37:48.773Z,1037.07
2016-12-24T08:38:48.761Z,1037.12
2016-12-24T08:39:48.750Z,1037.02
2016-12-24T08:40:48.739Z,1036.98
2016-12-24T08:41:48.727Z,1036.95
2016-12-24T08:42:48.715Z,1036.99
2016-12-24T08:43:48.705Z,1037.02
2016-12-24T08:44:48.693Z,1037.12
2016-12-24T08:45:48.682Z,1037.16
2016-12-24T08:46:48.670Z,1037.07
2016-12-24T08:47:48.659Z,1037.02
2016-12-24T08:48:48.648Z,1037.01
2016-12-24T08:49:48.636Z,1037.05
2016-12-24T08:50:48.625Z,1037.02
2016-12-24T08:51:48.614Z,1037.06
2016-12-24T08:52:48.603Z,1037.02
2016-12-24T08:53:48.591Z,1036.98
2016-12-24T08:54:48.580Z,1036.91
2016-12-24T08:55:48.569Z,1036.87
2016-12-24T08:56:48.558Z,1036.85
2016-12-24T08:57:48.550Z,1036.77
2016-12-24T08:58:48.537Z,1036.75
2016-12-24T08:59:48.526Z,1036.71
2016-12-24T09:00:48.514Z,1036.63
2016-12-24T09:01:48.503Z,1036.58
2016-12-24T09:02:48.492Z,1036.54
2016-12-24T09:03:48.482Z,1036.48
2016-12-24T09:04:48.470Z,1036.44
2016-12-24T09:05:48.460Z,1036.53
2016-12-24T09:06:48.449Z,1036.6
2016-12-24T09:07:48.436Z,1036.58
2016-12-24T09:08:48.426Z,1036.67
2016-12-24T09:09:48.416Z,1036.64
2016-12-24T09:10:48.405Z,1036.68
2016-12-24T09:11:48.393Z,1036.68
2016-12-24T09:12:48.383Z,1036.78
2016-12-24T09:13:48.372Z,1036.75
2016-12-24T09:14:48.362Z,1036.77
2016-12-24T09:15:48.351Z,1036.72
2016-12-24T09:16:48.339Z,1036.66
2016-12-24T09:17:48.331Z,1036.65
2016-12-24T09:18:48.317Z,1036.55
2016-12-24T09:19:48.307Z,1036.45
2016-12-24T09:20:48.297Z,1036.42
2016-12-24T09:21:48.286Z,1036.33
2016-12-24T09:22:48.274Z,1036.36
2016-12-24T09:23:48.263Z,1036.32
2016-12-24T09:24:48.253Z,1036.29
2016-12-24T09:25:48.243Z,1036.25
2016-12-24T09:26:48.232Z,1036.18
2016-12-24T09:27:48.220Z,1036.12
2016-12-24T09:28:48.210Z,1036.05
2016-12-24T09:29:48.199Z,1035.99
2016-12-24T09:30:48.188Z,1036.06
2016-12-24T09:31:48.177Z,1035.99
2016-12-24T09:32:48.167Z,1036.03
2016-12-24T09:33:48.156Z,1036
2016-12-24T09:34:48.145Z,1035.94
2016-12-24T09:35:48.137Z,1035.84
2016-12-24T09:36:48.127Z,1035.73
2016-12-24T09:37:48.114Z,1035.69
2016-12-24T09:38:48.104Z,1035.69
2016-12-24T09:39:48.093Z,1035.64
2016-12-24T09:40:48.083Z,1035.6
2016-12-24T09:41:48.072Z,1035.57
2016-12-24T09:42:48.062Z,1035.51
2016-12-24T09:43:48.052Z,1035.56
2016-12-24T09:44:48.041Z,1035.58
2016-12-24T09:45:48.031Z,1035.5
2016-12-24T09:46:48.021Z,1035.5
2016-12-24T09:47:48.011Z,1035.51
2016-12-24T09:48:48.000Z,1035.52
2016-12-24T09:49:47.990Z,1035.47
2016-12-24T09:50:47.979Z,1035.43
2016-12-24T09:51:47.969Z,1035.44
2016-12-24T09:52:47.959Z,1035.44
2016-12-24T09:53:47.949Z,1035.45
2016-12-24T09:54:47.939Z,1035.43
2016-12-24T09:55:47.928Z,1035.47
2016-12-24T09:56:47.928Z,1035.52
2016-12-24T09:57:47.908Z,1035.54
2016-12-24T09:58:47.898Z,1035.5
2016-12-24T09:59:47.887Z,1035.5
2016-12-24T10:00:47.878Z,1035.44
2016-12-24T10:01:47.867Z,1035.41
2016-12-24T10:02:47.856Z,1035.37
2016-12-24T10:03:47.846Z,1035.43
2016-12-24T10:04:47.836Z,1035.42
2016-12-24T10:05:47.827Z,1035.44
2016-12-24T10:06:47.816Z,1035.41
2016-12-24T10:07:47.806Z,1035.47
2016-12-24T10:08:47.797Z,1035.48
2016-12-24T10:09:47.785Z,1035.48
2016-12-24T10:10:47.775Z,1035.44
2016-12-24T10:11:47.765Z,1035.43
2016-12-24T10:12:47.755Z,1035.4
2016-12-24T10:13:47.744Z,1035.37
2016-12-24T10:14:47.735Z,1035.38
2016-12-24T10:15:47.724Z,1035.37
2016-12-24T10:16:47.714Z,1035.38
2016-12-24T10:17:47.704Z,1035.41
2016-12-24T10:18:47.694Z,1035.4
2016-12-24T10:19:47.684Z,1035.44
2016-12-24T10:20:47.674Z,1035.47
2016-12-24T10:21:47.663Z,1035.49
2016-12-24T10:22:47.653Z,1035.53
2016-12-24T10:23:47.644Z,1035.57
2016-12-24T10:24:47.634Z,1035.6
2016-12-24T10:25:47.624Z,1035.58
2016-12-24T10:26:47.613Z,1035.55
2016-12-24T10:27:47.603Z,1035.6
2016-12-24T10:28:47.594Z,1035.65
2016-12-24T10:29:47.583Z,1035.64
2016-12-24T10:30:47.572Z,1035.61
2016-12-24T10:31:47.563Z,1035.59
2016-12-24T10:32:47.552Z,1035.5
2016-12-24T10:33:47.543Z,1035.48
2016-12-24T10:34:47.533Z,1035.37
2016-12-24T10:35:47.522Z,1035.35
2016-12-24T10:36:47.512Z,1035.32
2016-12-24T10:37:47.502Z,1035.3
2016-12-24T10:38:47.493Z,1035.29
2016-12-24T10:39:47.482Z,1035.28
2016-12-24T10:40:47.472Z,1035.25
2016-12-24T10:41:47.462Z,1035.25
2016-12-24T10:42:47.451Z,1035.26
2016-12-24T10:43:47.441Z,1035.22
2016-12-24T10:44:47.432Z,1035.22
2016-12-24T10:45:47.422Z,1035.16
2016-12-24T10:46:47.411Z,1035.08
2016-12-24T10:47:47.404Z,1035.04
2016-12-24T10:48:47.391Z,1035.02
2016-12-24T10:49:47.382Z,1035.02
2016-12-24T10:50:47.371Z,1034.99
2016-12-24T10:51:47.362Z,1034.98
2016-12-24T10:52:47.352Z,1034.96
2016-12-24T10:53:47.341Z,1034.93
2016-12-24T10:54:47.332Z,1034.92
2016-12-24T10:55:47.322Z,1034.9
2016-12-24T10:56:47.313Z,1034.84
2016-12-24T10:57:47.302Z,1034.81
2016-12-24T10:58:47.292Z,1034.74
2016-12-24T10:59:47.283Z,1034.79
2016-12-24T11:00:47.273Z,1034.77
2016-12-24T11:01:47.263Z,1034.82
2016-12-24T11:02:47.255Z,1034.75
2016-12-24T11:03:47.244Z,1034.77
2016-12-24T11:04:47.237Z,1034.81
2016-12-24T11:05:47.224Z,1034.91
2016-12-24T11:06:47.214Z,1034.88
2016-12-24T11:07:47.205Z,1034.85
2016-12-24T11:08:47.195Z,1034.85
2016-12-24T11:09:47.185Z,1034.81
2016-12-24T11:10:47.176Z,1034.75
2016-12-24T11:11:47.166Z,1034.72
2016-12-24T11:12:47.156Z,1034.71
2016-12-24T11:13:47.147Z,1034.65
2016-12-24T11:14:47.137Z,1034.54
2016-12-24T11:15:47.127Z,1034.48
2016-12-24T11:16:47.118Z,1034.38
2016-12-24T11:17:47.108Z,1034.35
2016-12-24T11:18:47.099Z,1034.31
2016-12-24T11:19:47.089Z,1034.33
2016-12-24T11:20:47.079Z,1034.32
2016-12-24T11:21:47.070Z,1034.24
2016-12-24T11:22:47.061Z,1034.24
2016-12-24T11:23:47.051Z,1034.26
2016-12-24T11:24:47.042Z,1034.19
2016-12-24T11:25:47.033Z,1034.11
2016-12-24T11:26:47.022Z,1034.02
2016-12-24T11:27:47.013Z,1034.02
2016-12-24T11:28:47.004Z,1033.99
2016-12-24T11:29:46.995Z,1034.05
2016-12-24T11:30:46.985Z,1034.07
2016-12-24T11:31:46.975Z,1034.16
2016-12-24T11:32:46.967Z,1034.24
2016-12-24T11:33:46.958Z,1034.25
2016-12-24T11:34:46.947Z,1034.24
2016-12-24T11:35:46.938Z,1034.23
2016-12-24T11:36:46.929Z,1034.25
2016-12-24T11:37:46.919Z,1034.29
2016-12-24T11:38:46.909Z,1034.26
2016-12-24T11:39:46.900Z,1034.32
2016-12-24T11:40:46.890Z,1034.34
2016-12-24T11:41:46.880Z,1034.33
2016-12-24T11:42:46.871Z,1034.29
2016-12-24T11:43:46.861Z,1034.3
2016-12-24T11:44:46.852Z,1034.28
2016-12-24T11:45:46.841Z,1034.31
2016-12-24T11:46:46.832Z,1034.35
2016-12-24T11:47:46.823Z,1034.31
2016-12-24T11:48:46.812Z,1034.26
2016-12-24T11:49:46.803Z,1034.24
2016-12-24T11:50:46.793Z,1034.18
2016-12-24T11:51:46.784Z,1034.19
2016-12-24T11:52:46.774Z,1034.13
2016-12-24T11:53:46.764Z,1034.1
2016-12-24T11:54:46.755Z,1034.06
2016-12-24T11:55:46.745Z,1034.06
2016-12-24T11:56:46.735Z,1034
2016-12-24T11:57:46.726Z,1034.02
2016-12-24T11:58:46.717Z,1033.93
2016-12-24T11:59:46.706Z,1033.91
2016-12-24T12:00:46.697Z,1033.85
2016-12-24T12:01:46.688Z,1033.85
2016-12-24T12:02:46.679Z,1033.8
2016-12-24T12:03:46.668Z,1033.73
2016-12-24T12:04:46.659Z,1033.7
2016-12-24T12:05:46.651Z,1033.68
2016-12-24T12:06:46.641Z,1033.61
2016-12-24T12:07:46.632Z,1033.58
2016-12-24T12:08:46.623Z,1033.61